Time;durP1;ratioP1;P1;durP2;ratioP2;P2;SDS_P1;SDS_P2;PMS_P1;PMS_P2;Temp;Humidity;BMP_temperature;BMP_pressure;BME280_temperature;BME280_humidity;BME280_pressure;Samples;Min_cycle;Max_cycle;Signal;HPM_P1;HPM_P2
2022/04/18 00:02:05;;;;;;;1999.90;999.90;;;4.70;99.90;;;;;;5089137;28;20448;-68
2022/04/18 00:04:33;;;;;;;1999.90;999.90;;;4.60;99.90;;;;;;5079969;28;20826;-69
2022/04/18 00:07:01;;;;;;;1999.90;999.90;;;4.50;99.90;;;;;;5069324;28;20503;-68
2022/04/18 00:09:29;;;;;;;1999.90;999.90;;;4.40;99.90;;;;;;5080667;28;20456;-68
2022/04/18 00:11:56;;;;;;;1999.90;999.90;;;4.50;99.90;;;;;;5079469;28;20472;-69
2022/04/18 00:14:23;;;;;;;1999.90;999.90;;;4.50;99.90;;;;;;5076652;28;20527;-68
2022/04/18 00:16:50;;;;;;;1999.90;999.90;;;4.50;99.90;;;;;;5079391;28;20448;-69
2022/04/18 00:19:17;;;;;;;1999.90;999.90;;;4.50;99.90;;;;;;5091654;28;20440;-71
2022/04/18 00:21:43;;;;;;;1999.90;999.90;;;4.50;99.90;;;;;;5092065;28;20441;-69
2022/04/18 00:26:56;;;;;;;1999.90;999.90;;;4.60;99.90;;;;;;5079770;28;20461;-66
2022/04/18 00:29:23;;;;;;;1999.90;999.90;;;4.60;99.90;;;;;;5069621;28;20499;-66
2022/04/18 00:31:49;;;;;;;1999.90;999.90;;;4.60;99.90;;;;;;5079105;28;20465;-65
2022/04/18 00:34:16;;;;;;;1999.90;999.90;;;4.60;99.90;;;;;;5089704;28;20518;-67
2022/04/18 00:36:44;;;;;;;1999.90;999.90;;;4.60;99.90;;;;;;5089807;28;20470;-66
2022/04/18 00:39:10;;;;;;;1999.90;999.90;;;4.70;99.90;;;;;;5089678;28;20448;-68
2022/04/18 00:41:37;;;;;;;1999.90;999.90;;;4.60;99.90;;;;;;5092894;28;20444;-67
2022/04/18 00:44:05;;;;;;;1999.90;999.90;;;4.60;99.90;;;;;;5092723;28;20444;-66
2022/04/18 00:46:32;;;;;;;1999.90;999.90;;;4.60;99.90;;;;;;5092899;28;20460;-63
2022/04/18 00:48:59;;;;;;;1999.90;999.90;;;4.60;99.90;;;;;;5093191;28;20444;-66
2022/04/18 00:51:28;;;;;;;1999.90;999.90;;;4.60;99.90;;;;;;5092978;28;20476;-67
2022/04/18 00:53:56;;;;;;;1999.90;999.90;;;4.50;99.90;;;;;;5093061;28;20539;-66
2022/04/18 00:56:23;;;;;;;1999.90;999.90;;;4.50;99.90;;;;;;5092989;28;20476;-66
2022/04/18 00:58:50;;;;;;;1999.90;999.90;;;4.50;99.90;;;;;;5103203;28;20585;-66
2022/04/18 01:01:19;;;;;;;1999.90;999.90;;;4.50;99.90;;;;;;5114248;28;20453;-67
2022/04/18 01:03:47;;;;;;;1999.90;999.90;;;4.40;99.90;;;;;;5114106;28;20515;-66
2022/04/18 01:06:15;;;;;;;1999.90;999.90;;;4.40;99.90;;;;;;5114827;28;20460;-67
2022/04/18 01:08:42;;;;;;;1999.90;999.90;;;4.40;99.90;;;;;;5110848;28;20453;-67
2022/04/18 01:11:10;;;;;;;1999.90;999.90;;;4.40;99.90;;;;;;5114537;28;20480;-70
2022/04/18 01:13:42;;;;;;;1999.90;999.90;;;4.40;99.90;;;;;;5101371;28;20524;-68
2022/04/18 01:16:09;;;;;;;1999.90;999.90;;;4.40;99.90;;;;;;5092458;28;20982;-68
2022/04/18 01:18:37;;;;;;;1999.90;999.90;;;4.40;99.90;;;;;;5091999;28;20532;-68
2022/04/18 01:21:05;;;;;;;1999.90;999.90;;;4.40;99.90;;;;;;5094235;28;20453;-68
2022/04/18 01:23:32;;;;;;;1999.90;999.90;;;4.40;99.90;;;;;;5091343;28;20502;-69
2022/04/18 01:29:02;;;;;;;1999.90;999.90;;;4.30;99.90;;;;;;5084295;28;20535;-68
2022/04/18 01:31:30;;;;;;;1999.90;999.90;;;4.30;99.90;;;;;;5093106;28;20464;-69
2022/04/18 01:33:57;;;;;;;1999.90;999.90;;;4.30;99.90;;;;;;5092106;28;20449;-67
2022/04/18 01:36:25;;;;;;;1999.90;999.90;;;4.20;99.90;;;;;;5093292;28;20494;-68
2022/04/18 01:38:52;;;;;;;1999.90;999.90;;;4.20;99.90;;;;;;5091654;28;20452;-68
2022/04/18 01:41:19;;;;;;;1999.90;999.90;;;4.20;99.90;;;;;;5091941;28;20502;-68
2022/04/18 01:43:46;;;;;;;1999.90;999.90;;;4.10;99.90;;;;;;5091067;28;20452;-69
2022/04/18 01:46:14;;;;;;;1999.90;999.90;;;4.00;99.90;;;;;;5091585;28;20892;-68
2022/04/18 01:48:40;;;;;;;1999.90;999.90;;;4.10;99.90;;;;;;5091699;28;20448;-66
2022/04/18 01:51:07;;;;;;;1999.90;999.90;;;4.10;99.90;;;;;;5091454;28;20480;-69
2022/04/18 01:53:35;;;;;;;1999.90;999.90;;;4.00;99.90;;;;;;5091543;28;20444;-68
2022/04/18 01:56:02;;;;;;;1999.90;999.90;;;3.90;99.90;;;;;;5091041;28;20461;-68
2022/04/18 01:58:29;;;;;;;1999.90;999.90;;;3.90;99.90;;;;;;5091661;28;20448;-68
2022/04/18 02:00:55;;;;;;;1999.90;999.90;;;3.90;99.90;;;;;;5091916;28;20436;-68
2022/04/18 02:03:22;;;;;;;1999.90;999.90;;;3.90;99.90;;;;;;5091273;28;20444;-68
2022/04/18 02:05:52;;;;;;;1999.90;999.90;;;3.90;99.90;;;;;;5092676;28;20481;-68
2022/04/18 02:08:19;;;;;;;1999.90;999.90;;;3.90;99.90;;;;;;5091529;28;20482;-68
2022/04/18 02:10:47;;;;;;;1999.90;999.90;;;4.00;99.90;;;;;;5091036;28;21085;-68
2022/04/18 02:13:14;;;;;;;1999.90;999.90;;;4.00;99.90;;;;;;5090795;28;20857;-68
2022/04/18 02:15:42;;;;;;;1999.90;999.90;;;4.10;99.90;;;;;;5091131;28;20472;-67
2022/04/18 02:18:09;;;;;;;1999.90;999.90;;;4.10;99.90;;;;;;5090502;28;20543;-67
2022/04/18 02:20:35;;;;;;;1999.90;999.90;;;4.10;99.90;;;;;;5092520;28;20493;-66
2022/04/18 02:23:02;;;;;;;1999.90;999.90;;;4.20;99.90;;;;;;5090361;28;20456;-66
2022/04/18 02:25:29;;;;;;;1999.90;999.90;;;4.20;99.90;;;;;;5091040;28;20472;-66
2022/04/18 02:27:56;;;;;;;1999.90;999.90;;;4.20;99.90;;;;;;5091279;28;20448;-66
2022/04/18 02:30:23;;;;;;;1999.90;999.90;;;4.20;99.90;;;;;;5091159;28;20502;-66
2022/04/18 02:32:51;;;;;;;1999.90;999.90;;;4.20;99.90;;;;;;5090578;28;20449;-66
2022/04/18 02:35:20;;;;;;;1999.90;999.90;;;4.10;99.90;;;;;;5091707;28;20464;-65
2022/04/18 02:37:48;;;;;;;1999.90;999.90;;;4.00;99.90;;;;;;5091041;28;20440;-65
2022/04/18 02:40:15;;;;;;;1999.90;999.90;;;3.90;99.90;;;;;;5091250;28;20445;-66
2022/04/18 02:42:43;;;;;;;1999.90;999.90;;;3.80;99.90;;;;;;5090227;28;20502;-65
2022/04/18 02:45:12;;;;;;;1999.90;999.90;;;3.50;99.90;;;;;;5090691;28;20471;-68
2022/04/18 02:47:39;;;;;;;1999.90;999.90;;;3.30;99.90;;;;;;5090820;28;20506;-68
2022/04/18 02:50:07;;;;;;;1999.90;999.90;;;3.20;99.90;;;;;;5091297;28;20452;-68
2022/04/18 02:52:34;;;;;;;1999.90;999.90;;;3.20;99.90;;;;;;5089983;28;21005;-68
2022/04/18 02:55:01;;;;;;;1999.90;999.90;;;3.30;99.90;;;;;;5090511;28;20510;-68
2022/04/18 02:57:28;;;;;;;1999.90;999.90;;;3.40;99.90;;;;;;5090352;28;20452;-68
2022/04/18 02:59:54;;;;;;;1999.90;999.90;;;3.20;99.90;;;;;;5090282;28;20930;-69
2022/04/18 03:02:22;;;;;;;1999.90;999.90;;;3.00;99.90;;;;;;5089793;28;20449;-68
2022/04/18 03:04:49;;;;;;;1999.90;999.90;;;3.10;99.90;;;;;;5090878;28;20472;-67
2022/04/18 03:07:16;;;;;;;1999.90;999.90;;;3.00;99.90;;;;;;5091155;28;20460;-68
2022/04/18 03:09:42;;;;;;;1999.90;999.90;;;3.00;99.90;;;;;;5090259;28;20801;-68
2022/04/18 03:12:09;;;;;;;1999.90;999.90;;;3.00;99.90;;;;;;5089833;28;20480;-68
2022/04/18 03:14:36;;;;;;;1999.90;999.90;;;3.10;99.90;;;;;;5090768;28;20452;-69
2022/04/18 03:17:03;;;;;;;1999.90;999.90;;;3.00;99.90;;;;;;5090267;28;20452;-68
2022/04/18 03:19:32;;;;;;;1999.90;999.90;;;2.80;99.90;;;;;;5089983;28;20459;-68
2022/04/18 03:22:00;;;;;;;1999.90;999.90;;;2.80;99.90;;;;;;5089020;28;20541;-65
2022/04/18 03:24:26;;;;;;;1999.90;999.90;;;2.70;99.90;;;;;;5089787;28;20448;-68
2022/04/18 03:26:53;;;;;;;1999.90;999.90;;;2.70;99.90;;;;;;5089854;28;20456;-68
2022/04/18 03:29:20;;;;;;;1999.90;999.90;;;2.60;99.90;;;;;;5090407;28;20498;-68
2022/04/18 03:31:47;;;;;;;1999.90;999.90;;;2.50;99.90;;;;;;5089454;28;20468;-68
2022/04/18 03:34:13;;;;;;;1999.90;999.90;;;2.30;99.90;;;;;;5089368;28;20448;-68
2022/04/18 03:42:11;;;;;;;1999.90;999.90;;;2.50;99.90;;;;;;5089630;28;20436;-68
2022/04/18 03:44:43;;;;;;;1999.90;999.90;;;2.50;99.90;;;;;;5090032;28;20501;-68
2022/04/18 03:47:10;;;;;;;1999.90;999.90;;;2.50;99.90;;;;;;5090289;28;20449;-68
2022/04/18 03:49:36;;;;;;;1999.90;999.90;;;2.40;99.90;;;;;;5098893;28;20460;-68
2022/04/18 03:52:05;;;;;;;1999.90;999.90;;;2.40;99.90;;;;;;5098333;28;20521;-68
2022/04/18 03:54:33;;;;;;;1999.90;999.90;;;2.50;99.90;;;;;;5098941;28;20449;-68
2022/04/18 03:56:59;;;;;;;1999.90;999.90;;;2.50;99.90;;;;;;5093296;28;20819;-68
2022/04/18 03:59:26;;;;;;;1999.90;999.90;;;2.50;99.90;;;;;;5090079;28;20502;-68
2022/04/18 04:01:52;;;;;;;1999.90;999.90;;;2.50;99.90;;;;;;5089444;28;20441;-68
2022/04/18 04:04:19;;;;;;;1999.90;999.90;;;2.40;99.90;;;;;;5089534;28;20509;-67
2022/04/18 04:06:46;;;;;;;1999.90;999.90;;;2.80;99.90;;;;;;5090990;28;20445;-69
2022/04/18 04:09:14;;;;;;;1999.90;999.90;;;2.50;99.90;;;;;;5090872;28;20497;-67
2022/04/18 04:11:40;;;;;;;1999.90;999.90;;;2.60;99.90;;;;;;5091189;28;20522;-68
2022/04/18 04:14:07;;;;;;;1999.90;999.90;;;2.50;99.90;;;;;;5090756;28;20868;-68
2022/04/18 04:16:34;;;;;;;1999.90;999.90;;;2.50;99.90;;;;;;5095306;28;20856;-68
2022/04/18 04:19:00;;;;;;;1999.90;999.90;;;2.50;99.90;;;;;;5095426;28;20506;-67
2022/04/18 04:21:27;;;;;;;1999.90;999.90;;;2.40;99.90;;;;;;5094638;28;20437;-68
2022/04/18 04:23:54;;;;;;;1999.90;999.90;;;2.50;99.90;;;;;;5095023;28;20444;-68
2022/04/18 04:26:22;;;;;;;1999.90;999.90;;;2.40;99.90;;;;;;5094751;28;20476;-68
2022/04/18 04:28:48;;;;;;;1999.90;999.90;;;2.40;99.90;;;;;;5094715;28;20879;-67
2022/04/18 04:31:15;;;;;;;1999.90;999.90;;;2.20;99.90;;;;;;5094534;28;20480;-68
2022/04/18 04:33:42;;;;;;;1999.90;999.90;;;2.20;99.90;;;;;;5094526;28;20490;-67
2022/04/18 04:36:08;;;;;;;1999.90;999.90;;;2.30;99.90;;;;;;5094664;28;20464;-68
2022/04/18 04:38:35;;;;;;;1999.90;999.90;;;2.40;99.90;;;;;;5089145;28;20955;-67
2022/04/18 04:41:02;;;;;;;1999.90;999.90;;;2.50;99.90;;;;;;5086052;28;20872;-68
2022/04/18 04:43:31;;;;;;;1999.90;999.90;;;2.50;99.90;;;;;;5094261;28;20444;-68
2022/04/18 04:46:00;;;;;;;1999.90;999.90;;;2.50;99.90;;;;;;5094532;28;20506;-68
2022/04/18 04:48:27;;;;;;;1999.90;999.90;;;2.40;99.90;;;;;;5093512;28;20480;-68
2022/04/18 04:50:54;;;;;;;1999.90;999.90;;;2.30;99.90;;;;;;5094321;28;20962;-68
2022/04/18 04:53:20;;;;;;;1999.90;999.90;;;2.30;99.90;;;;;;5094262;28;20531;-68
2022/04/18 04:55:47;;;;;;;1999.90;999.90;;;2.20;99.90;;;;;;5094367;28;20518;-68
2022/04/18 04:58:14;;;;;;;1999.90;999.90;;;2.30;99.90;;;;;;5094453;28;20474;-69
2022/04/18 05:00:43;;;;;;;1999.90;999.90;;;2.40;99.90;;;;;;5089550;28;20536;-68
2022/04/18 05:03:10;;;;;;;1999.90;999.90;;;2.50;99.90;;;;;;5086559;28;20553;-68
2022/04/18 05:05:37;;;;;;;1999.90;999.90;;;2.50;99.90;;;;;;5080293;28;20480;-68
2022/04/18 05:08:04;;;;;;;1999.90;999.90;;;2.60;99.90;;;;;;5093953;28;20486;-65
2022/04/18 05:10:30;;;;;;;1999.90;999.90;;;2.80;99.90;;;;;;5094651;28;20890;-68
2022/04/18 05:12:57;;;;;;;1999.90;999.90;;;2.90;99.90;;;;;;5093572;28;20549;-69
2022/04/18 05:15:24;;;;;;;1999.90;999.90;;;3.20;99.90;;;;;;5094135;28;20464;-68
2022/04/18 05:17:52;;;;;;;1999.90;999.90;;;3.60;99.90;;;;;;5094231;28;20462;-67
2022/04/18 05:20:19;;;;;;;1999.90;999.90;;;4.00;99.90;;;;;;5094136;28;20573;-68
2022/04/18 05:22:45;;;;;;;1999.90;999.90;;;4.20;99.90;;;;;;5093779;28;20999;-66
2022/04/18 05:25:12;;;;;;;1999.90;999.90;;;4.40;99.90;;;;;;5091749;28;20492;-65
2022/04/18 05:27:39;;;;;;;1999.90;999.90;;;4.50;99.90;;;;;;5094089;28;20946;-66
2022/04/18 05:30:07;;;;;;;1999.90;999.90;;;4.20;99.90;;;;;;5092744;28;20474;-66
2022/04/18 05:32:34;;;;;;;1999.90;999.90;;;4.50;99.90;;;;;;5093711;28;20475;-65
2022/04/18 05:35:02;;;;;;;1999.90;999.90;;;4.70;99.90;;;;;;5093607;28;20514;-66
2022/04/18 05:37:28;;;;;;;1999.90;999.90;;;5.00;99.90;;;;;;5093745;28;20502;-66
2022/04/18 05:39:55;;;;;;;1999.90;999.90;;;5.10;99.90;;;;;;5093906;28;20456;-66
2022/04/18 05:42:24;;;;;;;1999.90;999.90;;;5.10;99.90;;;;;;5093723;28;20478;-65
2022/04/18 05:44:51;;;;;;;1999.90;999.90;;;5.00;99.90;;;;;;5093666;28;20504;-66
2022/04/18 05:47:17;;;;;;;1999.90;999.90;;;5.30;99.90;;;;;;5093381;28;20445;-67
2022/04/18 05:49:44;;;;;;;1999.90;999.90;;;5.20;99.90;;;;;;5093126;28;20452;-66
2022/04/18 05:52:13;;;;;;;1999.90;999.90;;;5.60;99.90;;;;;;5092646;28;20506;-66
2022/04/18 05:54:40;;;;;;;1999.90;999.90;;;6.10;99.90;;;;;;5093453;28;20947;-67
2022/04/18 05:57:06;;;;;;;1999.90;999.90;;;6.50;99.90;;;;;;5093212;28;20995;-69
2022/04/18 05:59:33;;;;;;;1999.90;999.90;;;6.90;99.90;;;;;;5093231;28;20494;-68
2022/04/18 06:02:00;;;;;;;1999.90;999.90;;;7.20;99.90;;;;;;5089971;28;20482;-66
2022/04/18 06:04:26;;;;;;;1999.90;999.90;;;7.60;99.90;;;;;;5092782;28;20498;-69
2022/04/18 06:06:53;;;;;;;1999.90;999.90;;;7.70;99.90;;;;;;5093240;28;20444;-68
2022/04/18 06:09:21;;;;;;;1999.90;999.90;;;7.90;99.90;;;;;;5092856;28;20934;-69
2022/04/18 06:11:48;;;;;;;1999.90;999.90;;;8.00;99.90;;;;;;5093499;28;20472;-66
2022/04/18 06:14:14;;;;;;;1999.90;999.90;;;8.00;99.90;;;;;;5088614;28;20458;-69
2022/04/18 06:16:41;;;;;;;1999.90;999.90;;;8.10;99.90;;;;;;5093009;28;20469;-69
2022/04/18 06:19:07;;;;;;;1999.90;999.90;;;8.20;99.90;;;;;;5096405;28;20991;-70
2022/04/18 06:21:34;;;;;;;1999.90;999.90;;;8.20;99.90;;;;;;5072956;28;20458;-68
2022/04/18 06:24:01;;;;;;;1999.90;999.90;;;8.50;99.90;;;;;;5080649;28;20957;-69
2022/04/18 06:26:29;;;;;;;1999.90;999.90;;;8.50;99.90;;;;;;5106737;22;20919;-69
2022/04/18 06:28:57;;;;;;;1999.90;999.90;;;8.60;99.90;;;;;;5092456;28;20441;-68
2022/04/18 06:31:24;;;;;;;1999.90;999.90;;;8.60;99.90;;;;;;5088736;28;20526;-68
2022/04/18 06:33:50;;;;;;;1999.90;999.90;;;8.70;99.90;;;;;;5091279;28;20448;-68
2022/04/18 06:36:17;;;;;;;1999.90;999.90;;;8.70;99.90;;;;;;5091502;28;21964;-69
2022/04/18 06:38:44;;;;;;;1999.90;999.90;;;8.80;99.90;;;;;;5090370;28;20445;-68
2022/04/18 06:41:10;;;;;;;1999.90;999.90;;;8.90;99.90;;;;;;5092601;28;20444;-68
2022/04/18 06:43:38;;;;;;;1999.90;999.90;;;9.10;99.90;;;;;;5086246;28;20440;-68
2022/04/18 06:46:05;;;;;;;1999.90;999.90;;;9.20;99.90;;;;;;5096125;28;20469;-69
2022/04/18 06:48:32;;;;;;;1999.90;999.90;;;9.40;99.90;;;;;;5091878;28;20810;-69
2022/04/18 06:50:59;;;;;;;1999.90;999.90;;;9.50;99.90;;;;;;5091679;28;21006;-69
2022/04/18 06:53:26;;;;;;;1999.90;999.90;;;9.60;99.90;;;;;;5091019;28;21055;-69
2022/04/18 06:58:36;;;;;;;1999.90;999.90;;;10.10;99.90;;;;;;5087687;28;20425;-68
2022/04/18 07:01:05;;;;;;;1999.90;999.90;;;10.10;99.90;;;;;;5072285;28;20503;-69
2022/04/18 07:03:31;;;;;;;1999.90;999.90;;;10.00;99.90;;;;;;5089898;28;20445;-69
2022/04/18 07:05:58;;;;;;;1999.90;999.90;;;10.20;99.90;;;;;;5089948;28;20878;-69
2022/04/18 07:08:25;;;;;;;1999.90;999.90;;;10.60;99.90;;;;;;5090742;28;20446;-69
2022/04/18 07:10:51;;;;;;;1999.90;999.90;;;10.60;99.90;;;;;;5092679;28;21005;-69
2022/04/18 07:13:18;;;;;;;1999.90;999.90;;;11.00;99.90;;;;;;5092479;28;20896;-69
2022/04/18 07:15:45;;;;;;;1999.90;999.90;;;11.10;99.90;;;;;;5087505;28;20515;-69
2022/04/18 07:18:13;;;;;;;1999.90;999.90;;;11.10;99.90;;;;;;5092316;28;20449;-69
2022/04/18 07:20:41;;;;;;;1999.90;999.90;;;11.00;99.90;;;;;;5088085;28;20458;-69
2022/04/18 07:23:08;;;;;;;1999.90;999.90;;;11.10;99.90;;;;;;5086866;28;20445;-69
2022/04/18 07:25:34;;;;;;;1999.90;999.90;;;11.10;99.90;;;;;;5088178;28;20473;-70
2022/04/18 07:28:01;;;;;;;1999.90;999.90;;;11.20;99.90;;;;;;5092769;28;20444;-70
2022/04/18 07:30:30;;;;;;;1999.90;999.90;;;11.40;99.90;;;;;;5088288;28;20457;-70
2022/04/18 07:32:56;;;;;;;1999.90;999.90;;;11.50;99.90;;;;;;5092236;28;20484;-71
2022/04/18 07:35:24;;;;;;;1999.90;999.90;;;11.80;99.90;;;;;;5091327;28;21105;-68
2022/04/18 07:40:35;;;;;;;1999.90;999.90;;;11.80;99.90;;;;;;5091767;28;20448;-70
2022/04/18 07:43:02;;;;;;;1999.90;999.90;;;11.80;99.90;;;;;;5092433;28;20436;-70
2022/04/18 07:45:28;;;;;;;1999.90;999.90;;;12.10;99.90;;;;;;5086399;28;20502;-69
2022/04/18 07:47:57;;;;;;;1999.90;999.90;;;12.10;98.80;;;;;;5086040;28;20498;-70
2022/04/18 07:51:31;;;;;;;1999.90;999.90;;;12.10;97.40;;;;;;5090285;28;20449;-70
2022/04/18 07:53:11;;;;;;;1999.90;999.90;;;12.20;97.50;;;;;;5089153;28;20467;-69
2022/04/18 07:55:38;;;;;;;1999.90;999.90;;;12.30;96.00;;;;;;5096535;28;20541;-69
2022/04/18 07:58:05;;;;;;;1999.90;999.90;;;12.40;95.90;;;;;;5096543;28;20441;-69
2022/04/18 08:00:32;;;;;;;1999.90;999.90;;;12.40;96.40;;;;;;5093996;28;20447;-69
2022/04/18 08:02:58;;;;;;;1999.90;999.90;;;12.50;97.20;;;;;;5089561;28;20863;-70
2022/04/18 08:05:26;;;;;;;1999.90;999.90;;;12.50;97.10;;;;;;5088870;28;20460;-69
2022/04/18 08:07:53;;;;;;;1999.90;999.90;;;12.80;97.70;;;;;;5081822;28;20479;-69
2022/04/18 08:10:19;;;;;;;1999.90;999.90;;;12.90;97.90;;;;;;5090780;28;20862;-69
2022/04/18 08:12:46;;;;;;;1999.90;999.90;;;12.80;97.00;;;;;;5090219;28;20841;-70
2022/04/18 08:15:13;;;;;;;1999.90;999.90;;;12.70;97.50;;;;;;5092917;28;20465;-70
2022/04/18 08:17:39;;;;;;;1999.90;999.90;;;12.80;97.10;;;;;;5094534;28;20448;-69
2022/04/18 08:20:07;;;;;;;1999.90;999.90;;;13.00;96.70;;;;;;5095000;28;21034;-68
2022/04/18 08:22:35;;;;;;;1999.90;999.90;;;13.10;96.50;;;;;;5093052;28;20445;-70
2022/04/18 08:25:02;;;;;;;1999.90;999.90;;;13.30;96.40;;;;;;5091369;28;20466;-69
2022/04/18 08:27:29;;;;;;;1999.90;999.90;;;13.40;95.80;;;;;;5094871;28;21003;-69
2022/04/18 08:29:55;;;;;;;1999.90;999.90;;;13.50;96.60;;;;;;5093782;28;20448;-68
2022/04/18 08:32:22;;;;;;;1999.90;999.90;;;13.50;95.20;;;;;;5093655;28;20587;-69
2022/04/18 08:34:51;;;;;;;1999.90;999.90;;;13.40;95.10;;;;;;5090409;28;20456;-70
2022/04/18 08:37:17;;;;;;;1999.90;999.90;;;13.20;95.10;;;;;;5093464;28;20497;-69
2022/04/18 08:39:46;;;;;;;1999.90;999.90;;;13.30;96.10;;;;;;5096120;28;20452;-69
2022/04/18 08:42:13;;;;;;;1999.90;999.90;;;13.50;96.10;;;;;;5094319;28;20487;-70
2022/04/18 08:44:41;;;;;;;1999.90;999.90;;;13.30;95.80;;;;;;5088870;28;20456;-69
2022/04/18 08:47:08;;;;;;;1999.90;999.90;;;13.60;96.00;;;;;;5094044;28;20444;-70
2022/04/18 08:55:06;;;;;;;1999.90;999.90;;;13.60;95.50;;;;;;5089822;28;20578;-70
2022/04/18 08:57:33;;;;;;;1999.90;999.90;;;13.80;95.20;;;;;;5086309;28;20494;-69
2022/04/18 08:59:59;;;;;;;1999.90;999.90;;;13.80;95.40;;;;;;5088789;28;20453;-70
2022/04/18 09:02:28;;;;;;;1999.90;999.90;;;13.90;95.30;;;;;;5091863;28;20444;-69
2022/04/18 09:04:55;;;;;;;1999.90;999.90;;;14.20;94.70;;;;;;5094536;28;20547;-68
2022/04/18 09:07:23;;;;;;;1999.90;999.90;;;14.20;94.30;;;;;;5095426;28;20449;-67
2022/04/18 09:09:55;;;;;;;1999.90;999.90;;;13.90;94.50;;;;;;5094721;28;20449;-68
2022/04/18 09:12:27;;;;;;;1999.90;999.90;;;14.00;95.30;;;;;;5093614;28;20568;-67
2022/04/18 09:14:54;;;;;;;1999.90;999.90;;;14.20;95.20;;;;;;5091943;28;20478;-68
2022/04/18 09:17:31;;;;;;;1999.90;999.90;;;14.30;95.10;;;;;;5091862;28;20875;-67
2022/04/18 09:20:05;;;;;;;1999.90;999.90;;;14.30;94.60;;;;;;5092454;28;20859;-68
2022/04/18 09:22:39;;;;;;;1999.90;999.90;;;14.30;94.10;;;;;;5094072;28;20933;-68
2022/04/18 09:25:13;;;;;;;1999.90;999.90;;;14.30;94.70;;;;;;5093618;28;20526;-68
2022/04/18 09:27:41;;;;;;;1999.90;999.90;;;14.30;94.10;;;;;;5093488;28;20449;-68
2022/04/18 09:30:10;;;;;;;1999.90;999.90;;;14.30;94.00;;;;;;5093821;28;20938;-68
2022/04/18 09:32:38;;;;;;;1999.90;999.90;;;14.10;93.80;;;;;;5094452;28;20525;-68
2022/04/18 09:35:06;;;;;;;1999.90;999.90;;;14.00;94.90;;;;;;5093736;28;20555;-68
2022/04/18 09:37:34;;;;;;;1999.90;999.90;;;14.30;94.20;;;;;;5094097;28;20449;-69
2022/04/18 09:40:01;;;;;;;1999.90;999.90;;;14.30;94.50;;;;;;5094324;28;20502;-68
2022/04/18 09:42:29;;;;;;;1999.90;999.90;;;14.50;94.90;;;;;;5094300;28;20445;-68
2022/04/18 09:44:57;;;;;;;1999.90;999.90;;;14.60;94.30;;;;;;5094975;28;20464;-69
2022/04/18 09:47:27;;;;;;;1999.90;999.90;;;14.70;94.50;;;;;;5094523;28;20506;-71
2022/04/18 09:49:53;;;;;;;1999.90;999.90;;;14.50;93.70;;;;;;5094104;28;20449;-70
2022/04/18 09:52:21;;;;;;;1999.90;999.90;;;14.40;94.60;;;;;;5093447;28;20557;-69
2022/04/18 09:54:52;;;;;;;1999.90;999.90;;;14.30;94.90;;;;;;5093694;28;20476;-68
2022/04/18 09:57:23;;;;;;;1999.90;999.90;;;14.60;94.60;;;;;;5093547;28;20443;-68
2022/04/18 09:59:51;;;;;;;1999.90;999.90;;;14.80;95.30;;;;;;5093871;28;20451;-68
2022/04/18 10:02:20;;;;;;;1999.90;999.90;;;14.90;94.10;;;;;;5093697;28;20443;-68
2022/04/18 10:04:47;;;;;;;1999.90;999.90;;;14.80;93.90;;;;;;5093390;28;20506;-68
2022/04/18 10:07:15;;;;;;;1999.90;999.90;;;14.80;94.10;;;;;;5092707;28;20452;-68
2022/04/18 10:09:43;;;;;;;1999.90;999.90;;;14.80;93.80;;;;;;5089287;28;20505;-71
2022/04/18 10:12:10;;;;;;;1999.90;999.90;;;14.80;93.20;;;;;;5092110;28;20499;-67
2022/04/18 10:14:37;;;;;;;1999.90;999.90;;;15.00;94.00;;;;;;5093450;28;20480;-68
2022/04/18 10:17:06;;;;;;;1999.90;999.90;;;15.30;93.70;;;;;;5075295;28;20943;-68
2022/04/18 10:19:51;;;;;;;1999.90;999.90;;;15.40;92.90;;;;;;5086318;28;20451;-68
2022/04/18 10:22:36;;;;;;;1999.90;999.90;;;15.50;93.10;;;;;;5072801;28;20437;-68
2022/04/18 10:25:17;;;;;;;1999.90;999.90;;;15.50;92.70;;;;;;5089393;28;20488;-69
2022/04/18 10:28:04;;;;;;;1999.90;999.90;;;15.40;92.10;;;;;;5091747;28;20436;-68
2022/04/18 10:30:34;;;;;;;1999.90;999.90;;;15.20;91.10;;;;;;5092205;28;20543;-67
2022/04/18 10:33:02;;;;;;;1999.90;999.90;;;15.30;91.60;;;;;;5092045;28;20476;-67
2022/04/18 10:35:30;;;;;;;1999.90;999.90;;;15.20;91.30;;;;;;5084113;28;20481;-67
2022/04/18 10:37:57;;;;;;;1999.90;999.90;;;15.10;91.90;;;;;;5106451;28;20493;-67
2022/04/18 10:40:24;;;;;;;1999.90;999.90;;;15.30;91.80;;;;;;5113195;28;20456;-67
2022/04/18 10:42:51;;;;;;;1999.90;999.90;;;15.10;91.70;;;;;;5108415;28;21021;-67
2022/04/18 10:45:24;;;;;;;1999.90;999.90;;;15.20;91.00;;;;;;5091885;28;20460;-66
2022/04/18 10:48:09;;;;;;;1999.90;999.90;;;15.40;91.40;;;;;;5084058;28;20507;-67
2022/04/18 10:50:42;;;;;;;1999.90;999.90;;;15.40;91.10;;;;;;5092154;28;20463;-68
2022/04/18 10:53:28;;;;;;;1999.90;999.90;;;15.20;91.20;;;;;;5090281;28;20870;-68
2022/04/18 10:56:12;;;;;;;1999.90;999.90;;;15.40;91.80;;;;;;5080952;28;20471;-68
2022/04/18 10:58:43;;;;;;;1999.90;999.90;;;15.70;90.70;;;;;;5092282;28;20812;-68
2022/04/18 11:01:10;;;;;;;1999.90;999.90;;;15.70;90.70;;;;;;5092045;28;20453;-68
2022/04/18 11:03:56;;;;;;;1999.90;999.90;;;15.60;91.60;;;;;;5091993;28;21079;-68
2022/04/18 11:06:46;;;;;;;1999.90;999.90;;;15.50;92.10;;;;;;5088579;28;20468;-67
2022/04/18 11:09:15;;;;;;;1999.90;999.90;;;15.50;92.20;;;;;;5072343;28;20453;-68
2022/04/18 11:11:46;;;;;;;1999.90;999.90;;;15.80;91.70;;;;;;5071605;28;20946;-67
2022/04/18 11:14:17;;;;;;;1999.90;999.90;;;15.70;91.60;;;;;;5074404;28;20530;-68
2022/04/18 11:16:58;;;;;;;1999.90;999.90;;;15.60;91.70;;;;;;5090343;28;20477;-68
2022/04/18 11:19:28;;;;;;;1999.90;999.90;;;15.70;89.10;;;;;;5092979;28;20485;-68
2022/04/18 11:22:26;;;;;;;1999.90;999.90;;;14.70;90.20;;;;;;5091873;28;20547;-67
2022/04/18 11:25:00;;;;;;;1999.90;999.90;;;15.20;91.40;;;;;;5022881;28;20830;-68
2022/04/18 11:27:37;;;;;;;1999.90;999.90;;;15.70;90.50;;;;;;5076852;28;20552;-66
2022/04/18 11:30:14;;;;;;;1999.90;999.90;;;16.00;89.80;;;;;;5091715;28;20447;-68
2022/04/18 11:32:42;;;;;;;1999.90;999.90;;;16.00;90.10;;;;;;5091782;28;20493;-67
2022/04/18 11:35:10;;;;;;;1999.90;999.90;;;16.10;90.40;;;;;;5091607;28;20484;-68
2022/04/18 11:37:40;;;;;;;1999.90;999.90;;;16.30;87.70;;;;;;5092173;28;20449;-68
2022/04/18 11:40:09;;;;;;;1999.90;999.90;;;16.30;84.40;;;;;;5091309;28;20806;-68
2022/04/18 11:42:37;;;;;;;1999.90;999.90;;;16.10;84.30;;;;;;5091505;28;20444;-67
2022/04/18 11:45:06;;;;;;;1999.90;999.90;;;16.00;89.30;;;;;;5091774;28;20456;-68
2022/04/18 11:47:36;;;;;;;1999.90;999.90;;;16.10;90.00;;;;;;5091559;28;20457;-68
2022/04/18 11:50:05;;;;;;;1999.90;999.90;;;16.10;85.70;;;;;;5091924;28;20441;-68
2022/04/18 11:52:35;;;;;;;1999.90;999.90;;;15.70;85.00;;;;;;5090861;28;20957;-68
2022/04/18 11:55:05;;;;;;;1999.90;999.90;;;15.70;87.00;;;;;;5091133;28;20902;-68
2022/04/18 11:57:34;;;;;;;1999.90;999.90;;;15.60;87.70;;;;;;5091977;28;20447;-68
2022/04/18 12:00:01;;;;;;;1999.90;999.90;;;15.70;88.10;;;;;;5091376;28;20448;-67
2022/04/18 12:08:06;;;;;;;1999.90;999.90;;;16.10;85.90;;;;;;5091523;28;20463;-68
2022/04/18 12:10:37;;;;;;;1999.90;999.90;;;16.40;85.10;;;;;;5087290;28;20444;-68
2022/04/18 12:13:06;;;;;;;1999.90;999.90;;;16.50;84.50;;;;;;5091631;28;20476;-68
2022/04/18 12:15:34;;;;;;;1999.90;999.90;;;16.20;82.80;;;;;;5091147;28;20500;-68
2022/04/18 12:18:10;;;;;;;1999.90;999.90;;;16.20;83.70;;;;;;5090598;28;20441;-67
2022/04/18 12:20:41;;;;;;;1999.90;999.90;;;15.90;79.90;;;;;;5091641;28;20921;-67
2022/04/18 12:23:09;;;;;;;1999.90;999.90;;;15.90;79.90;;;;;;5090136;28;20547;-68
2022/04/18 12:25:37;;;;;;;1999.90;999.90;;;16.20;80.60;;;;;;5106207;23;20464;-65
2022/04/18 12:28:06;;;;;;;1999.90;999.90;;;16.30;79.10;;;;;;5086605;28;20961;-65
2022/04/18 12:30:33;;;;;;;1999.90;999.90;;;16.60;77.70;;;;;;5086801;28;20440;-66
2022/04/18 12:33:11;;;;;;;1999.90;999.90;;;16.70;77.90;;;;;;5086513;28;20441;-65
2022/04/18 12:35:39;;;;;;;1999.90;999.90;;;16.60;75.30;;;;;;5087873;28;20576;-65
2022/04/18 12:38:07;;;;;;;1999.90;999.90;;;16.50;75.50;;;;;;5090433;28;20441;-65